sensor_id;sensor_type;location;lat;lon;timestamp;P1;durP1;ratioP1;P2;durP2;ratioP2
16282;SDS011;8249;48.708;9.030;2022-10-17T00:01:46;1.30;;;1.30;;
16282;SDS011;8249;48.708;9.030;2022-10-17T00:04:13;1.40;;;1.30;;
16282;SDS011;8249;48.708;9.030;2022-10-17T00:06:40;1.80;;;1.70;;
16282;SDS011;8249;48.708;9.030;2022-10-17T00:09:07;1.20;;;1.20;;
16282;SDS011;8249;48.708;9.030;2022-10-17T00:11:34;1.33;;;1.23;;
16282;SDS011;8249;48.708;9.030;2022-10-17T00:14:01;2.73;;;1.77;;
16282;SDS011;8249;48.708;9.030;2022-10-17T00:16:30;1.00;;;1.00;;
16282;SDS011;8249;48.708;9.030;2022-10-17T00:19:01;1.13;;;1.13;;
16282;SDS011;8249;48.708;9.030;2022-10-17T00:21:28;1.03;;;1.03;;
16282;SDS011;8249;48.708;9.030;2022-10-17T00:23:55;1.07;;;1.07;;
16282;SDS011;8249;48.708;9.030;2022-10-17T00:26:22;1.50;;;1.40;;
16282;SDS011;8249;48.708;9.030;2022-10-17T00:28:51;1.07;;;1.07;;
16282;SDS011;8249;48.708;9.030;2022-10-17T00:31:19;1.00;;;1.00;;
16282;SDS011;8249;48.708;9.030;2022-10-17T00:33:49;1.27;;;1.27;;
16282;SDS011;8249;48.708;9.030;2022-10-17T00:36:17;1.97;;;1.77;;
16282;SDS011;8249;48.708;9.030;2022-10-17T00:38:46;1.90;;;1.20;;
16282;SDS011;8249;48.708;9.030;2022-10-17T00:41:16;2.13;;;1.93;;
16282;SDS011;8249;48.708;9.030;2022-10-17T00:43:57;1.23;;;1.23;;
16282;SDS011;8249;48.708;9.030;2022-10-17T00:46:26;1.10;;;1.10;;
16282;SDS011;8249;48.708;9.030;2022-10-17T00:48:58;1.70;;;0.90;;
16282;SDS011;8249;48.708;9.030;2022-10-17T00:51:31;1.30;;;1.20;;
16282;SDS011;8249;48.708;9.030;2022-10-17T00:54:02;0.97;;;0.97;;
16282;SDS011;8249;48.708;9.030;2022-10-17T00:56:30;0.90;;;0.90;;
16282;SDS011;8249;48.708;9.030;2022-10-17T00:58:58;1.03;;;1.03;;
16282;SDS011;8249;48.708;9.030;2022-10-17T01:01:27;1.07;;;1.07;;
16282;SDS011;8249;48.708;9.030;2022-10-17T01:03:57;1.43;;;1.43;;
16282;SDS011;8249;48.708;9.030;2022-10-17T01:06:25;1.23;;;0.90;;
16282;SDS011;8249;48.708;9.030;2022-10-17T01:08:52;1.20;;;1.20;;
16282;SDS011;8249;48.708;9.030;2022-10-17T01:11:21;8.50;;;1.23;;
16282;SDS011;8249;48.708;9.030;2022-10-17T01:14:02;1.57;;;1.53;;
16282;SDS011;8249;48.708;9.030;2022-10-17T01:16:36;1.07;;;1.07;;
16282;SDS011;8249;48.708;9.030;2022-10-17T01:19:13;1.00;;;1.00;;
16282;SDS011;8249;48.708;9.030;2022-10-17T01:22:00;1.00;;;1.00;;
16282;SDS011;8249;48.708;9.030;2022-10-17T01:24:47;1.10;;;1.10;;
16282;SDS011;8249;48.708;9.030;2022-10-17T01:27:42;1.10;;;1.10;;
16282;SDS011;8249;48.708;9.030;2022-10-17T01:33:29;1.10;;;1.10;;
16282;SDS011;8249;48.708;9.030;2022-10-17T01:36:08;2.17;;;1.27;;
16282;SDS011;8249;48.708;9.030;2022-10-17T01:38:40;1.27;;;1.23;;
16282;SDS011;8249;48.708;9.030;2022-10-17T01:41:13;1.80;;;1.43;;
16282;SDS011;8249;48.708;9.030;2022-10-17T01:43:48;0.97;;;0.97;;
16282;SDS011;8249;48.708;9.030;2022-10-17T01:46:23;1.40;;;1.30;;
16282;SDS011;8249;48.708;9.030;2022-10-17T01:48:57;1.40;;;1.30;;
16282;SDS011;8249;48.708;9.030;2022-10-17T01:51:27;0.73;;;0.73;;
16282;SDS011;8249;48.708;9.030;2022-10-17T01:54:00;1.10;;;1.10;;
16282;SDS011;8249;48.708;9.030;2022-10-17T01:56:30;0.93;;;0.93;;
16282;SDS011;8249;48.708;9.030;2022-10-17T01:58:59;1.30;;;1.30;;
16282;SDS011;8249;48.708;9.030;2022-10-17T02:01:31;1.13;;;1.07;;
16282;SDS011;8249;48.708;9.030;2022-10-17T02:04:02;1.00;;;1.00;;
16282;SDS011;8249;48.708;9.030;2022-10-17T02:06:33;1.43;;;1.43;;
16282;SDS011;8249;48.708;9.030;2022-10-17T02:09:00;1.13;;;1.13;;
16282;SDS011;8249;48.708;9.030;2022-10-17T02:11:41;1.07;;;1.07;;
16282;SDS011;8249;48.708;9.030;2022-10-17T02:14:16;2.40;;;1.43;;
16282;SDS011;8249;48.708;9.030;2022-10-17T02:16:53;1.67;;;1.57;;
16282;SDS011;8249;48.708;9.030;2022-10-17T02:19:33;1.60;;;1.50;;
16282;SDS011;8249;48.708;9.030;2022-10-17T02:22:16;1.53;;;1.43;;
16282;SDS011;8249;48.708;9.030;2022-10-17T02:24:51;1.20;;;1.20;;
16282;SDS011;8249;48.708;9.030;2022-10-17T02:27:27;1.00;;;1.00;;
16282;SDS011;8249;48.708;9.030;2022-10-17T02:30:04;1.30;;;1.20;;
16282;SDS011;8249;48.708;9.030;2022-10-17T02:32:37;1.50;;;1.40;;
16282;SDS011;8249;48.708;9.030;2022-10-17T02:35:09;1.60;;;1.50;;
16282;SDS011;8249;48.708;9.030;2022-10-17T02:37:39;1.40;;;1.40;;
16282;SDS011;8249;48.708;9.030;2022-10-17T02:40:09;1.40;;;1.30;;
16282;SDS011;8249;48.708;9.030;2022-10-17T02:42:39;1.50;;;1.50;;
16282;SDS011;8249;48.708;9.030;2022-10-17T02:45:11;1.20;;;1.10;;
16282;SDS011;8249;48.708;9.030;2022-10-17T02:47:42;1.10;;;1.03;;
16282;SDS011;8249;48.708;9.030;2022-10-17T02:50:17;1.00;;;1.00;;
16282;SDS011;8249;48.708;9.030;2022-10-17T02:52:54;1.40;;;1.40;;
16282;SDS011;8249;48.708;9.030;2022-10-17T02:55:27;13.77;;;1.17;;
16282;SDS011;8249;48.708;9.030;2022-10-17T02:57:58;1.70;;;1.27;;
16282;SDS011;8249;48.708;9.030;2022-10-17T03:00:28;1.20;;;1.20;;
16282;SDS011;8249;48.708;9.030;2022-10-17T03:02:58;1.93;;;1.20;;
16282;SDS011;8249;48.708;9.030;2022-10-17T03:05:26;0.90;;;0.90;;
16282;SDS011;8249;48.708;9.030;2022-10-17T03:07:54;1.10;;;1.10;;
16282;SDS011;8249;48.708;9.030;2022-10-17T03:10:23;1.30;;;1.30;;
16282;SDS011;8249;48.708;9.030;2022-10-17T03:12:50;1.10;;;1.10;;
16282;SDS011;8249;48.708;9.030;2022-10-17T03:15:18;1.03;;;1.03;;
16282;SDS011;8249;48.708;9.030;2022-10-17T03:17:45;2.57;;;1.73;;
16282;SDS011;8249;48.708;9.030;2022-10-17T03:20:17;0.90;;;0.90;;
16282;SDS011;8249;48.708;9.030;2022-10-17T03:22:48;1.33;;;1.33;;
16282;SDS011;8249;48.708;9.030;2022-10-17T03:25:15;1.73;;;1.63;;
16282;SDS011;8249;48.708;9.030;2022-10-17T03:27:42;1.23;;;1.23;;
16282;SDS011;8249;48.708;9.030;2022-10-17T03:30:09;1.10;;;1.03;;
16282;SDS011;8249;48.708;9.030;2022-10-17T03:32:37;1.27;;;1.27;;
16282;SDS011;8249;48.708;9.030;2022-10-17T03:35:04;1.57;;;1.53;;
16282;SDS011;8249;48.708;9.030;2022-10-17T03:37:32;1.83;;;1.73;;
16282;SDS011;8249;48.708;9.030;2022-10-17T03:40:00;1.03;;;1.03;;
16282;SDS011;8249;48.708;9.030;2022-10-17T03:42:27;1.67;;;1.57;;
16282;SDS011;8249;48.708;9.030;2022-10-17T03:44:54;1.43;;;1.33;;
16282;SDS011;8249;48.708;9.030;2022-10-17T03:47:21;1.30;;;1.30;;
16282;SDS011;8249;48.708;9.030;2022-10-17T03:49:49;4.60;;;1.20;;
16282;SDS011;8249;48.708;9.030;2022-10-17T03:52:18;1.00;;;1.00;;
16282;SDS011;8249;48.708;9.030;2022-10-17T03:54:46;0.87;;;0.87;;
16282;SDS011;8249;48.708;9.030;2022-10-17T03:57:14;1.20;;;1.20;;
16282;SDS011;8249;48.708;9.030;2022-10-17T03:59:42;1.00;;;1.00;;
16282;SDS011;8249;48.708;9.030;2022-10-17T04:02:13;1.40;;;1.40;;
16282;SDS011;8249;48.708;9.030;2022-10-17T04:04:40;1.37;;;1.37;;
16282;SDS011;8249;48.708;9.030;2022-10-17T04:07:07;1.53;;;1.33;;
16282;SDS011;8249;48.708;9.030;2022-10-17T04:09:37;1.20;;;1.20;;
16282;SDS011;8249;48.708;9.030;2022-10-17T04:12:10;1.30;;;1.30;;
16282;SDS011;8249;48.708;9.030;2022-10-17T04:14:38;1.40;;;1.30;;
16282;SDS011;8249;48.708;9.030;2022-10-17T04:17:05;7.70;;;4.83;;
16282;SDS011;8249;48.708;9.030;2022-10-17T04:19:33;12.10;;;7.90;;
16282;SDS011;8249;48.708;9.030;2022-10-17T04:22:01;8.37;;;4.43;;
16282;SDS011;8249;48.708;9.030;2022-10-17T04:24:31;2.70;;;1.60;;
16282;SDS011;8249;48.708;9.030;2022-10-17T04:27:07;1.80;;;1.70;;
16282;SDS011;8249;48.708;9.030;2022-10-17T04:29:40;1.20;;;1.20;;
16282;SDS011;8249;48.708;9.030;2022-10-17T04:32:22;2.10;;;2.00;;
16282;SDS011;8249;48.708;9.030;2022-10-17T04:35:00;1.70;;;1.60;;
16282;SDS011;8249;48.708;9.030;2022-10-17T04:37:27;1.10;;;1.10;;
16282;SDS011;8249;48.708;9.030;2022-10-17T04:39:56;3.03;;;2.10;;
16282;SDS011;8249;48.708;9.030;2022-10-17T04:42:23;4.07;;;1.27;;
16282;SDS011;8249;48.708;9.030;2022-10-17T04:44:53;1.43;;;1.43;;
16282;SDS011;8249;48.708;9.030;2022-10-17T04:47:22;9.83;;;1.60;;
16282;SDS011;8249;48.708;9.030;2022-10-17T04:49:50;1.23;;;1.23;;
16282;SDS011;8249;48.708;9.030;2022-10-17T04:52:17;1.03;;;1.03;;
16282;SDS011;8249;48.708;9.030;2022-10-17T04:54:47;1.40;;;1.30;;
16282;SDS011;8249;48.708;9.030;2022-10-17T04:57:14;2.43;;;2.13;;
16282;SDS011;8249;48.708;9.030;2022-10-17T04:59:50;1.27;;;1.27;;
16282;SDS011;8249;48.708;9.030;2022-10-17T05:02:39;1.07;;;1.07;;
16282;SDS011;8249;48.708;9.030;2022-10-17T05:05:07;1.37;;;1.37;;
16282;SDS011;8249;48.708;9.030;2022-10-17T05:07:38;1.17;;;1.17;;
16282;SDS011;8249;48.708;9.030;2022-10-17T05:10:11;2.23;;;1.30;;
16282;SDS011;8249;48.708;9.030;2022-10-17T05:12:42;1.33;;;1.33;;
16282;SDS011;8249;48.708;9.030;2022-10-17T05:15:09;1.57;;;1.47;;
16282;SDS011;8249;48.708;9.030;2022-10-17T05:17:36;1.10;;;1.10;;
16282;SDS011;8249;48.708;9.030;2022-10-17T05:20:05;1.10;;;1.10;;
16282;SDS011;8249;48.708;9.030;2022-10-17T05:22:34;1.73;;;1.63;;
16282;SDS011;8249;48.708;9.030;2022-10-17T05:25:01;1.13;;;1.13;;
16282;SDS011;8249;48.708;9.030;2022-10-17T05:27:28;1.07;;;1.07;;
16282;SDS011;8249;48.708;9.030;2022-10-17T05:29:56;1.13;;;1.13;;
16282;SDS011;8249;48.708;9.030;2022-10-17T05:32:26;1.17;;;1.17;;
16282;SDS011;8249;48.708;9.030;2022-10-17T05:34:55;1.83;;;1.73;;
16282;SDS011;8249;48.708;9.030;2022-10-17T05:37:23;1.70;;;1.60;;
16282;SDS011;8249;48.708;9.030;2022-10-17T05:39:53;1.43;;;1.20;;
16282;SDS011;8249;48.708;9.030;2022-10-17T05:42:20;1.30;;;1.30;;
16282;SDS011;8249;48.708;9.030;2022-10-17T05:44:47;1.10;;;1.10;;
16282;SDS011;8249;48.708;9.030;2022-10-17T05:47:17;1.27;;;1.27;;
16282;SDS011;8249;48.708;9.030;2022-10-17T05:49:44;1.00;;;1.00;;
16282;SDS011;8249;48.708;9.030;2022-10-17T05:52:12;1.43;;;1.30;;
16282;SDS011;8249;48.708;9.030;2022-10-17T05:54:57;1.37;;;1.37;;
16282;SDS011;8249;48.708;9.030;2022-10-17T05:57:25;1.23;;;1.13;;
16282;SDS011;8249;48.708;9.030;2022-10-17T05:59:53;3.33;;;1.80;;
16282;SDS011;8249;48.708;9.030;2022-10-17T06:02:20;1.80;;;1.57;;
16282;SDS011;8249;48.708;9.030;2022-10-17T06:04:47;1.50;;;1.10;;
16282;SDS011;8249;48.708;9.030;2022-10-17T06:07:17;1.20;;;1.20;;
16282;SDS011;8249;48.708;9.030;2022-10-17T06:09:44;1.63;;;1.40;;
16282;SDS011;8249;48.708;9.030;2022-10-17T06:12:11;1.10;;;1.10;;
16282;SDS011;8249;48.708;9.030;2022-10-17T06:14:39;1.27;;;1.27;;
16282;SDS011;8249;48.708;9.030;2022-10-17T06:17:06;1.73;;;1.17;;
16282;SDS011;8249;48.708;9.030;2022-10-17T06:19:33;1.10;;;1.10;;
16282;SDS011;8249;48.708;9.030;2022-10-17T06:22:01;1.40;;;1.40;;
16282;SDS011;8249;48.708;9.030;2022-10-17T06:24:30;2.03;;;1.93;;
16282;SDS011;8249;48.708;9.030;2022-10-17T06:27:01;1.50;;;1.47;;
16282;SDS011;8249;48.708;9.030;2022-10-17T06:29:28;1.57;;;1.57;;
16282;SDS011;8249;48.708;9.030;2022-10-17T06:31:55;1.73;;;1.63;;
16282;SDS011;8249;48.708;9.030;2022-10-17T06:34:23;1.60;;;1.60;;
16282;SDS011;8249;48.708;9.030;2022-10-17T06:36:50;1.30;;;1.30;;
16282;SDS011;8249;48.708;9.030;2022-10-17T06:39:18;4.20;;;1.70;;
16282;SDS011;8249;48.708;9.030;2022-10-17T06:42:00;1.63;;;1.53;;
16282;SDS011;8249;48.708;9.030;2022-10-17T06:44:42;1.90;;;1.80;;
16282;SDS011;8249;48.708;9.030;2022-10-17T06:47:28;1.40;;;1.40;;
16282;SDS011;8249;48.708;9.030;2022-10-17T06:49:58;2.00;;;1.87;;
16282;SDS011;8249;48.708;9.030;2022-10-17T06:52:30;1.70;;;1.70;;
16282;SDS011;8249;48.708;9.030;2022-10-17T06:55:32;4.73;;;2.07;;
16282;SDS011;8249;48.708;9.030;2022-10-17T06:58:33;1.30;;;1.30;;
16282;SDS011;8249;48.708;9.030;2022-10-17T07:01:21;1.10;;;1.10;;
16282;SDS011;8249;48.708;9.030;2022-10-17T07:03:52;2.20;;;2.03;;
16282;SDS011;8249;48.708;9.030;2022-10-17T07:06:19;1.87;;;1.77;;
16282;SDS011;8249;48.708;9.030;2022-10-17T07:08:48;1.70;;;1.60;;
16282;SDS011;8249;48.708;9.030;2022-10-17T07:11:18;2.20;;;2.00;;
16282;SDS011;8249;48.708;9.030;2022-10-17T07:13:50;2.80;;;2.03;;
16282;SDS011;8249;48.708;9.030;2022-10-17T07:16:17;2.80;;;2.10;;
16282;SDS011;8249;48.708;9.030;2022-10-17T07:18:48;1.80;;;1.70;;
16282;SDS011;8249;48.708;9.030;2022-10-17T07:21:17;2.10;;;1.80;;
16282;SDS011;8249;48.708;9.030;2022-10-17T07:23:44;1.73;;;1.63;;
16282;SDS011;8249;48.708;9.030;2022-10-17T07:26:12;2.03;;;1.93;;
16282;SDS011;8249;48.708;9.030;2022-10-17T07:28:41;1.20;;;1.20;;
16282;SDS011;8249;48.708;9.030;2022-10-17T07:31:30;1.93;;;1.40;;
16282;SDS011;8249;48.708;9.030;2022-10-17T07:33:59;1.47;;;1.37;;
16282;SDS011;8249;48.708;9.030;2022-10-17T07:36:26;1.03;;;1.03;;
16282;SDS011;8249;48.708;9.030;2022-10-17T07:38:55;1.20;;;1.20;;
16282;SDS011;8249;48.708;9.030;2022-10-17T07:41:23;1.80;;;1.73;;
16282;SDS011;8249;48.708;9.030;2022-10-17T07:43:50;1.20;;;1.20;;
16282;SDS011;8249;48.708;9.030;2022-10-17T07:46:21;1.23;;;1.23;;
16282;SDS011;8249;48.708;9.030;2022-10-17T07:48:49;1.50;;;1.50;;
16282;SDS011;8249;48.708;9.030;2022-10-17T07:51:19;1.88;;;1.77;;
16282;SDS011;8249;48.708;9.030;2022-10-17T07:53:46;2.10;;;1.83;;
16282;SDS011;8249;48.708;9.030;2022-10-17T07:56:18;1.58;;;1.50;;
16282;SDS011;8249;48.708;9.030;2022-10-17T07:58:48;1.30;;;1.30;;
16282;SDS011;8249;48.708;9.030;2022-10-17T08:01:16;4.03;;;1.20;;
16282;SDS011;8249;48.708;9.030;2022-10-17T08:03:43;1.08;;;1.08;;
16282;SDS011;8249;48.708;9.030;2022-10-17T08:06:14;1.23;;;1.13;;
16282;SDS011;8249;48.708;9.030;2022-10-17T08:08:41;1.13;;;1.13;;
16282;SDS011;8249;48.708;9.030;2022-10-17T08:11:09;0.98;;;0.98;;
16282;SDS011;8249;48.708;9.030;2022-10-17T08:13:38;1.98;;;1.05;;
16282;SDS011;8249;48.708;9.030;2022-10-17T08:16:07;1.40;;;1.33;;
16282;SDS011;8249;48.708;9.030;2022-10-17T08:18:35;2.97;;;1.33;;
16282;SDS011;8249;48.708;9.030;2022-10-17T08:21:04;1.05;;;1.05;;
16282;SDS011;8249;48.708;9.030;2022-10-17T08:23:34;1.70;;;1.50;;
16282;SDS011;8249;48.708;9.030;2022-10-17T08:26:02;1.27;;;1.23;;
16282;SDS011;8249;48.708;9.030;2022-10-17T08:28:30;1.55;;;1.50;;
16282;SDS011;8249;48.708;9.030;2022-10-17T08:31:03;1.95;;;1.35;;
16282;SDS011;8249;48.708;9.030;2022-10-17T08:33:30;1.02;;;0.98;;
16282;SDS011;8249;48.708;9.030;2022-10-17T08:35:58;1.10;;;1.10;;
16282;SDS011;8249;48.708;9.030;2022-10-17T08:38:27;3.22;;;1.50;;
16282;SDS011;8249;48.708;9.030;2022-10-17T08:40:57;1.08;;;1.00;;
16282;SDS011;8249;48.708;9.030;2022-10-17T08:43:32;0.80;;;0.80;;
16282;SDS011;8249;48.708;9.030;2022-10-17T08:46:06;1.02;;;1.02;;
16282;SDS011;8249;48.708;9.030;2022-10-17T08:48:36;1.38;;;1.10;;
16282;SDS011;8249;48.708;9.030;2022-10-17T08:51:09;0.90;;;0.90;;
16282;SDS011;8249;48.708;9.030;2022-10-17T08:53:41;1.90;;;1.30;;
16282;SDS011;8249;48.708;9.030;2022-10-17T08:56:15;1.35;;;1.30;;
16282;SDS011;8249;48.708;9.030;2022-10-17T08:58:44;1.00;;;1.00;;
16282;SDS011;8249;48.708;9.030;2022-10-17T09:01:13;1.38;;;1.27;;
16282;SDS011;8249;48.708;9.030;2022-10-17T09:03:59;0.85;;;0.80;;
16282;SDS011;8249;48.708;9.030;2022-10-17T09:06:39;1.13;;;1.10;;
16282;SDS011;8249;48.708;9.030;2022-10-17T09:09:17;0.73;;;0.73;;
16282;SDS011;8249;48.708;9.030;2022-10-17T09:11:59;0.80;;;0.80;;
16282;SDS011;8249;48.708;9.030;2022-10-17T09:17:44;0.90;;;0.90;;
16282;SDS011;8249;48.708;9.030;2022-10-17T09:20:17;0.60;;;0.60;;
16282;SDS011;8249;48.708;9.030;2022-10-17T09:22:48;1.45;;;1.33;;
16282;SDS011;8249;48.708;9.030;2022-10-17T09:25:20;1.00;;;1.00;;
16282;SDS011;8249;48.708;9.030;2022-10-17T09:27:50;0.73;;;0.73;;
16282;SDS011;8249;48.708;9.030;2022-10-17T09:30:22;0.98;;;0.95;;
16282;SDS011;8249;48.708;9.030;2022-10-17T09:32:56;0.95;;;0.95;;
16282;SDS011;8249;48.708;9.030;2022-10-17T09:35:23;0.93;;;0.90;;
16282;SDS011;8249;48.708;9.030;2022-10-17T09:37:54;1.65;;;1.17;;
16282;SDS011;8249;48.708;9.030;2022-10-17T09:40:22;2.38;;;1.58;;
16282;SDS011;8249;48.708;9.030;2022-10-17T09:42:53;1.30;;;1.20;;
16282;SDS011;8249;48.708;9.030;2022-10-17T09:45:21;1.00;;;1.00;;
16282;SDS011;8249;48.708;9.030;2022-10-17T09:47:54;0.80;;;0.80;;
16282;SDS011;8249;48.708;9.030;2022-10-17T09:50:30;1.20;;;1.00;;
16282;SDS011;8249;48.708;9.030;2022-10-17T09:52:59;0.75;;;0.75;;
16282;SDS011;8249;48.708;9.030;2022-10-17T09:55:35;1.00;;;1.00;;
16282;SDS011;8249;48.708;9.030;2022-10-17T09:58:07;0.88;;;0.88;;
16282;SDS011;8249;48.708;9.030;2022-10-17T10:00:35;0.80;;;0.80;;
16282;SDS011;8249;48.708;9.030;2022-10-17T10:03:16;0.73;;;0.73;;
16282;SDS011;8249;48.708;9.030;2022-10-17T10:05:58;0.80;;;0.80;;
16282;SDS011;8249;48.708;9.030;2022-10-17T10:08:28;1.00;;;1.00;;
16282;SDS011;8249;48.708;9.030;2022-10-17T10:10:56;1.10;;;1.10;;
16282;SDS011;8249;48.708;9.030;2022-10-17T10:13:29;1.00;;;1.00;;
16282;SDS011;8249;48.708;9.030;2022-10-17T10:16:11;1.20;;;1.10;;
16282;SDS011;8249;48.708;9.030;2022-10-17T10:18:47;1.02;;;1.02;;
16282;SDS011;8249;48.708;9.030;2022-10-17T10:21:16;1.20;;;0.98;;
16282;SDS011;8249;48.708;9.030;2022-10-17T10:23:45;1.25;;;1.15;;
16282;SDS011;8249;48.708;9.030;2022-10-17T10:26:37;0.90;;;0.90;;
16282;SDS011;8249;48.708;9.030;2022-10-17T10:29:17;1.33;;;1.20;;
16282;SDS011;8249;48.708;9.030;2022-10-17T10:31:48;0.80;;;0.80;;
16282;SDS011;8249;48.708;9.030;2022-10-17T10:34:17;1.05;;;1.05;;
16282;SDS011;8249;48.708;9.030;2022-10-17T10:39:41;0.90;;;0.90;;
16282;SDS011;8249;48.708;9.030;2022-10-17T10:42:17;0.80;;;0.80;;
16282;SDS011;8249;48.708;9.030;2022-10-17T10:44:54;0.70;;;0.70;;
16282;SDS011;8249;48.708;9.030;2022-10-17T10:47:25;0.88;;;0.88;;
16282;SDS011;8249;48.708;9.030;2022-10-17T10:50:06;0.93;;;0.90;;
16282;SDS011;8249;48.708;9.030;2022-10-17T10:52:42;1.27;;;0.90;;
16282;SDS011;8249;48.708;9.030;2022-10-17T10:55:14;1.67;;;0.90;;
16282;SDS011;8249;48.708;9.030;2022-10-17T10:57:46;0.70;;;0.70;;
16282;SDS011;8249;48.708;9.030;2022-10-17T11:00:20;1.00;;;0.80;;
16282;SDS011;8249;48.708;9.030;2022-10-17T11:02:52;0.90;;;0.90;;
16282;SDS011;8249;48.708;9.030;2022-10-17T11:05:27;0.60;;;0.60;;
16282;SDS011;8249;48.708;9.030;2022-10-17T11:08:06;1.00;;;0.90;;
16282;SDS011;8249;48.708;9.030;2022-10-17T11:10:41;0.90;;;0.90;;
16282;SDS011;8249;48.708;9.030;2022-10-17T11:13:18;0.70;;;0.70;;
16282;SDS011;8249;48.708;9.030;2022-10-17T11:15:51;0.82;;;0.80;;
16282;SDS011;8249;48.708;9.030;2022-10-17T11:18:25;1.38;;;1.00;;
16282;SDS011;8249;48.708;9.030;2022-10-17T11:20:56;0.85;;;0.85;;
16282;SDS011;8249;48.708;9.030;2022-10-17T11:23:27;0.73;;;0.73;;
16282;SDS011;8249;48.708;9.030;2022-10-17T11:26:00;0.75;;;0.75;;
16282;SDS011;8249;48.708;9.030;2022-10-17T11:28:31;1.02;;;0.75;;
16282;SDS011;8249;48.708;9.030;2022-10-17T11:31:01;2.92;;;1.10;;
16282;SDS011;8249;48.708;9.030;2022-10-17T11:33:44;0.80;;;0.80;;
16282;SDS011;8249;48.708;9.030;2022-10-17T11:36:14;3.63;;;0.93;;
16282;SDS011;8249;48.708;9.030;2022-10-17T11:38:44;0.80;;;0.80;;
16282;SDS011;8249;48.708;9.030;2022-10-17T11:41:16;2.17;;;1.25;;
16282;SDS011;8249;48.708;9.030;2022-10-17T11:43:50;1.17;;;1.17;;
16282;SDS011;8249;48.708;9.030;2022-10-17T11:46:23;0.60;;;0.60;;
16282;SDS011;8249;48.708;9.030;2022-10-17T11:48:55;0.70;;;0.70;;
16282;SDS011;8249;48.708;9.030;2022-10-17T11:51:26;1.27;;;0.90;;
16282;SDS011;8249;48.708;9.030;2022-10-17T11:53:56;0.73;;;0.73;;
16282;SDS011;8249;48.708;9.030;2022-10-17T11:56:34;0.95;;;0.95;;
16282;SDS011;8249;48.708;9.030;2022-10-17T11:59:13;1.00;;;1.00;;
16282;SDS011;8249;48.708;9.030;2022-10-17T12:01:59;1.20;;;0.90;;
16282;SDS011;8249;48.708;9.030;2022-10-17T12:04:39;0.80;;;0.80;;
16282;SDS011;8249;48.708;9.030;2022-10-17T12:07:14;1.10;;;1.00;;
16282;SDS011;8249;48.708;9.030;2022-10-17T12:09:48;1.17;;;1.17;;
16282;SDS011;8249;48.708;9.030;2022-10-17T12:12:23;0.90;;;0.90;;
16282;SDS011;8249;48.708;9.030;2022-10-17T12:14:53;1.33;;;0.70;;
16282;SDS011;8249;48.708;9.030;2022-10-17T12:17:31;2.10;;;0.90;;
16282;SDS011;8249;48.708;9.030;2022-10-17T12:22:57;0.80;;;0.80;;
16282;SDS011;8249;48.708;9.030;2022-10-17T12:25:30;0.68;;;0.68;;
16282;SDS011;8249;48.708;9.030;2022-10-17T12:28:13;0.70;;;0.70;;
16282;SDS011;8249;48.708;9.030;2022-10-17T12:30:51;1.45;;;0.90;;
16282;SDS011;8249;48.708;9.030;2022-10-17T12:33:23;0.50;;;0.50;;
16282;SDS011;8249;48.708;9.030;2022-10-17T12:42:28;0.57;;;0.57;;
16282;SDS011;8249;48.708;9.030;2022-10-17T12:48:12;0.77;;;0.77;;
16282;SDS011;8249;48.708;9.030;2022-10-17T12:51:07;0.68;;;0.68;;
16282;SDS011;8249;48.708;9.030;2022-10-17T12:53:37;1.02;;;0.98;;
16282;SDS011;8249;48.708;9.030;2022-10-17T12:56:17;0.68;;;0.68;;
16282;SDS011;8249;48.708;9.030;2022-10-17T12:58:46;1.00;;;1.00;;
16282;SDS011;8249;48.708;9.030;2022-10-17T13:01:17;0.47;;;0.47;;
16282;SDS011;8249;48.708;9.030;2022-10-17T13:03:48;0.55;;;0.55;;
16282;SDS011;8249;48.708;9.030;2022-10-17T13:06:20;0.75;;;0.65;;
16282;SDS011;8249;48.708;9.030;2022-10-17T13:08:53;0.73;;;0.65;;
16282;SDS011;8249;48.708;9.030;2022-10-17T13:11:24;0.90;;;0.90;;
16282;SDS011;8249;48.708;9.030;2022-10-17T13:13:53;0.70;;;0.70;;
16282;SDS011;8249;48.708;9.030;2022-10-17T13:16:26;0.82;;;0.82;;
16282;SDS011;8249;48.708;9.030;2022-10-17T13:18:53;0.70;;;0.70;;
16282;SDS011;8249;48.708;9.030;2022-10-17T13:21:22;1.38;;;0.70;;
16282;SDS011;8249;48.708;9.030;2022-10-17T13:23:50;1.02;;;1.00;;
16282;SDS011;8249;48.708;9.030;2022-10-17T13:26:19;0.82;;;0.75;;
16282;SDS011;8249;48.708;9.030;2022-10-17T13:28:59;0.90;;;0.90;;
16282;SDS011;8249;48.708;9.030;2022-10-17T13:31:28;1.10;;;1.05;;
16282;SDS011;8249;48.708;9.030;2022-10-17T13:33:56;0.70;;;0.70;;
16282;SDS011;8249;48.708;9.030;2022-10-17T13:36:26;0.70;;;0.70;;
16282;SDS011;8249;48.708;9.030;2022-10-17T13:38:54;1.02;;;0.90;;
16282;SDS011;8249;48.708;9.030;2022-10-17T13:41:25;0.68;;;0.68;;
16282;SDS011;8249;48.708;9.030;2022-10-17T13:43:54;2.28;;;1.08;;
16282;SDS011;8249;48.708;9.030;2022-10-17T13:46:24;0.60;;;0.60;;
16282;SDS011;8249;48.708;9.030;2022-10-17T13:48:53;1.05;;;0.82;;
16282;SDS011;8249;48.708;9.030;2022-10-17T13:51:22;0.75;;;0.75;;
16282;SDS011;8249;48.708;9.030;2022-10-17T13:53:52;1.23;;;1.13;;
16282;SDS011;8249;48.708;9.030;2022-10-17T13:56:19;0.77;;;0.77;;
16282;SDS011;8249;48.708;9.030;2022-10-17T13:58:50;0.80;;;0.80;;
16282;SDS011;8249;48.708;9.030;2022-10-17T14:01:20;0.70;;;0.70;;
16282;SDS011;8249;48.708;9.030;2022-10-17T14:03:48;0.90;;;0.90;;
16282;SDS011;8249;48.708;9.030;2022-10-17T14:06:16;0.80;;;0.80;;
16282;SDS011;8249;48.708;9.030;2022-10-17T14:08:46;0.70;;;0.70;;
16282;SDS011;8249;48.708;9.030;2022-10-17T14:11:21;0.75;;;0.75;;
16282;SDS011;8249;48.708;9.030;2022-10-17T14:13:50;0.77;;;0.70;;
16282;SDS011;8249;48.708;9.030;2022-10-17T14:16:19;1.73;;;0.77;;
16282;SDS011;8249;48.708;9.030;2022-10-17T14:18:47;1.02;;;0.80;;
16282;SDS011;8249;48.708;9.030;2022-10-17T14:21:19;0.70;;;0.70;;
16282;SDS011;8249;48.708;9.030;2022-10-17T14:23:48;5.95;;;0.70;;
16282;SDS011;8249;48.708;9.030;2022-10-17T14:26:17;0.80;;;0.80;;
16282;SDS011;8249;48.708;9.030;2022-10-17T14:28:47;0.52;;;0.52;;
16282;SDS011;8249;48.708;9.030;2022-10-17T14:31:23;1.45;;;0.80;;
16282;SDS011;8249;48.708;9.030;2022-10-17T14:33:55;0.55;;;0.55;;
16282;SDS011;8249;48.708;9.030;2022-10-17T14:36:29;0.70;;;0.70;;
16282;SDS011;8249;48.708;9.030;2022-10-17T14:38:59;1.10;;;0.80;;
16282;SDS011;8249;48.708;9.030;2022-10-17T14:41:27;0.80;;;0.80;;
16282;SDS011;8249;48.708;9.030;2022-10-17T14:43:58;0.50;;;0.50;;
16282;SDS011;8249;48.708;9.030;2022-10-17T14:46:27;0.73;;;0.63;;
16282;SDS011;8249;48.708;9.030;2022-10-17T14:48:55;0.70;;;0.70;;
16282;SDS011;8249;48.708;9.030;2022-10-17T14:51:27;0.95;;;0.90;;
16282;SDS011;8249;48.708;9.030;2022-10-17T14:53:58;0.63;;;0.63;;
16282;SDS011;8249;48.708;9.030;2022-10-17T14:56:39;0.85;;;0.85;;
16282;SDS011;8249;48.708;9.030;2022-10-17T14:59:11;0.98;;;0.98;;
16282;SDS011;8249;48.708;9.030;2022-10-17T15:01:41;0.73;;;0.68;;
16282;SDS011;8249;48.708;9.030;2022-10-17T15:04:11;1.42;;;0.80;;
16282;SDS011;8249;48.708;9.030;2022-10-17T15:06:40;1.00;;;0.90;;
16282;SDS011;8249;48.708;9.030;2022-10-17T15:09:08;0.63;;;0.63;;
16282;SDS011;8249;48.708;9.030;2022-10-17T15:11:36;1.10;;;1.05;;
16282;SDS011;8249;48.708;9.030;2022-10-17T15:14:03;0.90;;;0.90;;
16282;SDS011;8249;48.708;9.030;2022-10-17T15:16:32;0.70;;;0.70;;
16282;SDS011;8249;48.708;9.030;2022-10-17T15:18:59;0.60;;;0.60;;
16282;SDS011;8249;48.708;9.030;2022-10-17T15:21:27;0.82;;;0.82;;
16282;SDS011;8249;48.708;9.030;2022-10-17T15:23:55;1.10;;;0.98;;
16282;SDS011;8249;48.708;9.030;2022-10-17T15:26:24;1.98;;;1.20;;
16282;SDS011;8249;48.708;9.030;2022-10-17T15:28:54;1.73;;;0.90;;
16282;SDS011;8249;48.708;9.030;2022-10-17T15:31:22;2.83;;;1.00;;
16282;SDS011;8249;48.708;9.030;2022-10-17T15:33:52;1.10;;;0.80;;
16282;SDS011;8249;48.708;9.030;2022-10-17T15:36:20;0.90;;;0.90;;
16282;SDS011;8249;48.708;9.030;2022-10-17T15:38:50;1.02;;;0.93;;
16282;SDS011;8249;48.708;9.030;2022-10-17T15:41:19;0.90;;;0.90;;
16282;SDS011;8249;48.708;9.030;2022-10-17T15:43:47;2.65;;;0.82;;
16282;SDS011;8249;48.708;9.030;2022-10-17T15:46:16;0.80;;;0.80;;
16282;SDS011;8249;48.708;9.030;2022-10-17T15:48:48;0.88;;;0.88;;